sensor_id;sensor_type;location;lat;lon;timestamp;P1;P2;P0
46044;PMS7003;31781;54.094;13.428;2023-08-31T00:01:19;2.00;2.00;2.00
46044;PMS7003;31781;54.094;13.428;2023-08-31T00:03:20;1.00;1.00;0.40
46044;PMS7003;31781;54.094;13.428;2023-08-31T00:05:22;0.00;0.00;0.00
46044;PMS7003;31781;54.094;13.428;2023-08-31T00:07:26;0.60;0.60;0.60
46044;PMS7003;31781;54.094;13.428;2023-08-31T00:09:27;1.20;1.20;1.00
46044;PMS7003;31781;54.094;13.428;2023-08-31T00:11:29;3.00;1.20;1.00
46044;PMS7003;31781;54.094;13.428;2023-08-31T00:13:32;1.60;1.60;1.00
46044;PMS7003;31781;54.094;13.428;2023-08-31T00:15:34;1.00;1.00;1.00
46044;PMS7003;31781;54.094;13.428;2023-08-31T00:17:36;1.60;1.60;1.00
46044;PMS7003;31781;54.094;13.428;2023-08-31T00:19:37;1.40;1.40;1.40
46044;PMS7003;31781;54.094;13.428;2023-08-31T00:21:39;2.00;0.80;0.80
46044;PMS7003;31781;54.094;13.428;2023-08-31T00:23:43;1.00;1.00;1.00
46044;PMS7003;31781;54.094;13.428;2023-08-31T00:25:45;0.20;0.20;0.20
46044;PMS7003;31781;54.094;13.428;2023-08-31T00:27:47;1.80;1.80;1.60
46044;PMS7003;31781;54.094;13.428;2023-08-31T00:29:49;1.00;1.00;0.40
46044;PMS7003;31781;54.094;13.428;2023-08-31T00:31:51;2.00;2.00;1.00
46044;PMS7003;31781;54.094;13.428;2023-08-31T00:33:55;1.00;1.00;1.00
46044;PMS7003;31781;54.094;13.428;2023-08-31T00:35:58;2.00;2.00;1.60
46044;PMS7003;31781;54.094;13.428;2023-08-31T00:38:00;1.00;1.00;1.00
46044;PMS7003;31781;54.094;13.428;2023-08-31T00:40:04;2.20;2.20;2.00
46044;PMS7003;31781;54.094;13.428;2023-08-31T00:42:06;1.00;1.00;0.60
46044;PMS7003;31781;54.094;13.428;2023-08-31T00:44:08;2.00;2.00;1.80
46044;PMS7003;31781;54.094;13.428;2023-08-31T00:46:10;1.80;1.80;1.00
46044;PMS7003;31781;54.094;13.428;2023-08-31T00:48:12;1.60;1.60;1.60
46044;PMS7003;31781;54.094;13.428;2023-08-31T00:50:17;2.00;2.00;1.00
46044;PMS7003;31781;54.094;13.428;2023-08-31T00:52:20;1.20;1.20;1.00
46044;PMS7003;31781;54.094;13.428;2023-08-31T00:54:22;2.40;2.40;1.40
46044;PMS7003;31781;54.094;13.428;2023-08-31T00:56:26;4.60;2.80;2.00
46044;PMS7003;31781;54.094;13.428;2023-08-31T00:58:28;2.00;2.00;2.00
46044;PMS7003;31781;54.094;13.428;2023-08-31T01:00:33;2.00;2.00;2.00
46044;PMS7003;31781;54.094;13.428;2023-08-31T01:02:48;4.40;2.60;1.60
46044;PMS7003;31781;54.094;13.428;2023-08-31T01:04:56;2.00;2.00;1.00
46044;PMS7003;31781;54.094;13.428;2023-08-31T01:07:07;2.60;2.60;2.00
46044;PMS7003;31781;54.094;13.428;2023-08-31T01:09:25;2.20;2.20;2.00
46044;PMS7003;31781;54.094;13.428;2023-08-31T01:11:40;1.80;1.80;1.20
46044;PMS7003;31781;54.094;13.428;2023-08-31T01:13:57;1.00;1.00;1.00
46044;PMS7003;31781;54.094;13.428;2023-08-31T01:16:03;2.80;2.80;2.00
46044;PMS7003;31781;54.094;13.428;2023-08-31T01:18:08;2.00;2.00;1.80
46044;PMS7003;31781;54.094;13.428;2023-08-31T01:20:11;1.40;1.40;1.20
46044;PMS7003;31781;54.094;13.428;2023-08-31T01:22:21;2.80;2.80;2.80
46044;PMS7003;31781;54.094;13.428;2023-08-31T01:24:32;2.00;2.00;1.60
46044;PMS7003;31781;54.094;13.428;2023-08-31T01:26:35;1.00;1.00;1.00
46044;PMS7003;31781;54.094;13.428;2023-08-31T01:28:38;2.20;2.20;2.00
46044;PMS7003;31781;54.094;13.428;2023-08-31T01:30:40;2.00;2.00;1.80
46044;PMS7003;31781;54.094;13.428;2023-08-31T01:32:43;4.00;2.60;2.00
46044;PMS7003;31781;54.094;13.428;2023-08-31T01:34:45;2.00;2.00;1.60
46044;PMS7003;31781;54.094;13.428;2023-08-31T01:36:47;2.20;2.20;2.00
46044;PMS7003;31781;54.094;13.428;2023-08-31T01:38:55;3.00;3.00;3.00
46044;PMS7003;31781;54.094;13.428;2023-08-31T01:41:05;3.00;3.00;2.00
46044;PMS7003;31781;54.094;13.428;2023-08-31T01:43:10;2.40;2.20;1.20
46044;PMS7003;31781;54.094;13.428;2023-08-31T01:45:14;2.60;2.60;2.00
46044;PMS7003;31781;54.094;13.428;2023-08-31T01:47:22;3.00;3.00;3.00
46044;PMS7003;31781;54.094;13.428;2023-08-31T01:49:25;2.80;2.80;2.00
46044;PMS7003;31781;54.094;13.428;2023-08-31T01:51:26;2.00;2.00;1.60
46044;PMS7003;31781;54.094;13.428;2023-08-31T01:53:28;2.80;2.80;2.40
46044;PMS7003;31781;54.094;13.428;2023-08-31T01:55:30;2.00;2.00;2.00
46044;PMS7003;31781;54.094;13.428;2023-08-31T01:57:34;4.80;4.80;3.80
46044;PMS7003;31781;54.094;13.428;2023-08-31T01:59:35;4.00;3.60;3.00
46044;PMS7003;31781;54.094;13.428;2023-08-31T02:01:37;4.40;3.00;2.40
46044;PMS7003;31781;54.094;13.428;2023-08-31T02:03:39;3.60;3.60;2.00
46044;PMS7003;31781;54.094;13.428;2023-08-31T02:05:41;3.00;3.00;3.00
46044;PMS7003;31781;54.094;13.428;2023-08-31T02:07:43;3.20;3.20;3.20
46044;PMS7003;31781;54.094;13.428;2023-08-31T02:09:45;3.80;3.80;3.00
46044;PMS7003;31781;54.094;13.428;2023-08-31T02:11:47;5.00;3.20;2.00
46044;PMS7003;31781;54.094;13.428;2023-08-31T02:13:50;2.80;2.80;2.00
46044;PMS7003;31781;54.094;13.428;2023-08-31T02:15:53;2.20;2.20;1.80
46044;PMS7003;31781;54.094;13.428;2023-08-31T02:17:55;3.20;3.20;3.00
46044;PMS7003;31781;54.094;13.428;2023-08-31T02:19:57;4.00;4.00;2.00
46044;PMS7003;31781;54.094;13.428;2023-08-31T02:22:00;3.80;2.80;2.00
46044;PMS7003;31781;54.094;13.428;2023-08-31T02:24:02;2.80;2.80;2.00
46044;PMS7003;31781;54.094;13.428;2023-08-31T02:26:04;4.00;4.00;3.00
46044;PMS7003;31781;54.094;13.428;2023-08-31T02:28:06;6.00;4.60;4.00
46044;PMS7003;31781;54.094;13.428;2023-08-31T02:30:10;1.60;1.60;1.00
46044;PMS7003;31781;54.094;13.428;2023-08-31T02:32:13;3.00;3.00;2.00
46044;PMS7003;31781;54.094;13.428;2023-08-31T02:34:14;5.40;3.00;3.00
46044;PMS7003;31781;54.094;13.428;2023-08-31T02:36:16;3.00;3.00;2.40
46044;PMS7003;31781;54.094;13.428;2023-08-31T02:38:18;4.20;3.00;3.00
46044;PMS7003;31781;54.094;13.428;2023-08-31T02:40:20;4.00;4.00;3.60
46044;PMS7003;31781;54.094;13.428;2023-08-31T02:42:22;4.40;4.40;3.80
46044;PMS7003;31781;54.094;13.428;2023-08-31T02:44:23;4.00;4.00;3.40
46044;PMS7003;31781;54.094;13.428;2023-08-31T02:46:27;2.80;2.80;2.00
46044;PMS7003;31781;54.094;13.428;2023-08-31T02:48:29;4.00;4.00;4.00
46044;PMS7003;31781;54.094;13.428;2023-08-31T02:50:31;5.60;4.00;3.20
46044;PMS7003;31781;54.094;13.428;2023-08-31T02:52:33;4.40;4.40;4.00
46044;PMS7003;31781;54.094;13.428;2023-08-31T02:54:35;1.00;1.00;0.80
46044;PMS7003;31781;54.094;13.428;2023-08-31T02:56:37;3.00;3.00;3.00
46044;PMS7003;31781;54.094;13.428;2023-08-31T02:58:40;3.80;3.80;3.00
46044;PMS7003;31781;54.094;13.428;2023-08-31T03:00:42;2.80;2.80;2.20
46044;PMS7003;31781;54.094;13.428;2023-08-31T03:02:45;4.00;4.00;3.00
46044;PMS7003;31781;54.094;13.428;2023-08-31T03:04:47;2.00;2.00;2.00
46044;PMS7003;31781;54.094;13.428;2023-08-31T03:06:50;4.00;4.00;3.00
46044;PMS7003;31781;54.094;13.428;2023-08-31T03:08:51;3.20;3.20;2.80
46044;PMS7003;31781;54.094;13.428;2023-08-31T03:10:53;3.60;3.60;2.60
46044;PMS7003;31781;54.094;13.428;2023-08-31T03:12:58;3.20;3.20;3.00
46044;PMS7003;31781;54.094;13.428;2023-08-31T03:15:00;3.60;3.20;3.00
46044;PMS7003;31781;54.094;13.428;2023-08-31T03:17:02;4.60;4.60;4.00
46044;PMS7003;31781;54.094;13.428;2023-08-31T03:19:06;4.80;4.00;3.20
46044;PMS7003;31781;54.094;13.428;2023-08-31T03:21:07;4.20;4.20;3.80
46044;PMS7003;31781;54.094;13.428;2023-08-31T03:23:09;4.60;4.60;4.00
46044;PMS7003;31781;54.094;13.428;2023-08-31T03:25:11;3.00;3.00;2.00
46044;PMS7003;31781;54.094;13.428;2023-08-31T03:27:13;2.60;2.60;2.40
46044;PMS7003;31781;54.094;13.428;2023-08-31T03:29:15;3.80;3.80;3.60
46044;PMS7003;31781;54.094;13.428;2023-08-31T03:31:20;3.60;3.60;3.00
46044;PMS7003;31781;54.094;13.428;2023-08-31T03:33:23;4.20;4.00;3.60
46044;PMS7003;31781;54.094;13.428;2023-08-31T03:35:26;4.00;4.00;3.60
46044;PMS7003;31781;54.094;13.428;2023-08-31T03:37:28;4.40;4.40;3.80
46044;PMS7003;31781;54.094;13.428;2023-08-31T03:39:30;3.20;3.00;3.00
46044;PMS7003;31781;54.094;13.428;2023-08-31T03:41:32;3.60;3.60;3.20
46044;PMS7003;31781;54.094;13.428;2023-08-31T03:43:34;3.80;3.80;2.80
46044;PMS7003;31781;54.094;13.428;2023-08-31T03:45:35;4.00;4.00;3.40
46044;PMS7003;31781;54.094;13.428;2023-08-31T03:47:37;4.80;4.80;3.80
46044;PMS7003;31781;54.094;13.428;2023-08-31T03:49:39;3.60;3.60;3.00
46044;PMS7003;31781;54.094;13.428;2023-08-31T03:51:42;5.20;3.60;3.00
46044;PMS7003;31781;54.094;13.428;2023-08-31T03:53:44;2.60;2.60;2.40
46044;PMS7003;31781;54.094;13.428;2023-08-31T03:55:45;3.80;2.80;2.40
46044;PMS7003;31781;54.094;13.428;2023-08-31T03:57:47;3.00;3.00;2.80
46044;PMS7003;31781;54.094;13.428;2023-08-31T03:59:49;4.00;2.00;2.00
46044;PMS7003;31781;54.094;13.428;2023-08-31T04:01:51;2.40;2.40;2.00
46044;PMS7003;31781;54.094;13.428;2023-08-31T04:03:52;3.00;3.00;3.00
46044;PMS7003;31781;54.094;13.428;2023-08-31T04:05:54;3.60;3.60;2.80
46044;PMS7003;31781;54.094;13.428;2023-08-31T04:07:58;3.00;3.00;2.00
46044;PMS7003;31781;54.094;13.428;2023-08-31T04:10:01;2.40;2.40;2.00
46044;PMS7003;31781;54.094;13.428;2023-08-31T04:12:03;3.00;3.00;3.00
46044;PMS7003;31781;54.094;13.428;2023-08-31T04:14:05;3.00;3.00;2.20
46044;PMS7003;31781;54.094;13.428;2023-08-31T04:16:07;3.20;3.00;2.40
46044;PMS7003;31781;54.094;13.428;2023-08-31T04:18:09;1.60;1.60;1.00
46044;PMS7003;31781;54.094;13.428;2023-08-31T04:20:12;2.80;2.80;2.40
46044;PMS7003;31781;54.094;13.428;2023-08-31T04:22:13;2.00;2.00;1.40
46044;PMS7003;31781;54.094;13.428;2023-08-31T04:24:17;3.00;3.00;2.00
46044;PMS7003;31781;54.094;13.428;2023-08-31T04:26:19;2.00;2.00;2.00
46044;PMS7003;31781;54.094;13.428;2023-08-31T04:28:21;2.40;2.40;2.00
46044;PMS7003;31781;54.094;13.428;2023-08-31T04:30:23;3.00;3.00;2.80
46044;PMS7003;31781;54.094;13.428;2023-08-31T04:32:24;2.00;2.00;2.00
46044;PMS7003;31781;54.094;13.428;2023-08-31T04:34:26;4.00;4.00;3.40
46044;PMS7003;31781;54.094;13.428;2023-08-31T04:36:28;3.00;3.00;3.00
46044;PMS7003;31781;54.094;13.428;2023-08-31T04:38:29;2.20;2.20;2.00
46044;PMS7003;31781;54.094;13.428;2023-08-31T04:40:32;3.20;3.20;3.00
46044;PMS7003;31781;54.094;13.428;2023-08-31T04:42:34;2.60;2.60;2.00
46044;PMS7003;31781;54.094;13.428;2023-08-31T04:44:36;3.40;3.40;3.20
46044;PMS7003;31781;54.094;13.428;2023-08-31T04:46:38;2.00;2.00;2.00
46044;PMS7003;31781;54.094;13.428;2023-08-31T04:48:40;2.00;2.00;1.60
46044;PMS7003;31781;54.094;13.428;2023-08-31T04:50:42;4.00;4.00;3.60
46044;PMS7003;31781;54.094;13.428;2023-08-31T04:52:44;3.00;3.00;2.40
46044;PMS7003;31781;54.094;13.428;2023-08-31T04:54:46;4.60;2.60;2.40
46044;PMS7003;31781;54.094;13.428;2023-08-31T04:56:49;2.00;2.00;2.00
46044;PMS7003;31781;54.094;13.428;2023-08-31T04:58:51;3.00;3.00;2.20
46044;PMS7003;31781;54.094;13.428;2023-08-31T05:00:53;3.20;3.20;3.00
46044;PMS7003;31781;54.094;13.428;2023-08-31T05:02:54;2.80;2.80;2.60
46044;PMS7003;31781;54.094;13.428;2023-08-31T05:04:56;4.60;4.40;3.60
46044;PMS7003;31781;54.094;13.428;2023-08-31T05:06:57;2.00;2.00;2.00
46044;PMS7003;31781;54.094;13.428;2023-08-31T05:08:59;1.20;1.20;1.00
46044;PMS7003;31781;54.094;13.428;2023-08-31T05:11:01;2.00;2.00;2.00
46044;PMS7003;31781;54.094;13.428;2023-08-31T05:13:05;4.00;3.00;2.40
46044;PMS7003;31781;54.094;13.428;2023-08-31T05:15:07;2.40;2.40;2.00
46044;PMS7003;31781;54.094;13.428;2023-08-31T05:17:09;2.00;2.00;2.00
46044;PMS7003;31781;54.094;13.428;2023-08-31T05:19:11;3.40;3.40;2.40
46044;PMS7003;31781;54.094;13.428;2023-08-31T05:21:13;4.80;3.40;3.00
46044;PMS7003;31781;54.094;13.428;2023-08-31T05:23:15;4.00;4.00;3.40
46044;PMS7003;31781;54.094;13.428;2023-08-31T05:25:16;2.00;2.00;2.00
46044;PMS7003;31781;54.094;13.428;2023-08-31T05:27:18;3.00;3.00;2.00
46044;PMS7003;31781;54.094;13.428;2023-08-31T05:29:21;2.60;2.60;2.60
46044;PMS7003;31781;54.094;13.428;2023-08-31T05:31:23;2.80;2.40;2.00
46044;PMS7003;31781;54.094;13.428;2023-08-31T05:33:25;5.00;3.60;3.20
46044;PMS7003;31781;54.094;13.428;2023-08-31T05:35:26;4.20;4.20;3.00
46044;PMS7003;31781;54.094;13.428;2023-08-31T05:37:31;5.60;4.00;3.60
46044;PMS7003;31781;54.094;13.428;2023-08-31T05:39:34;3.00;3.00;3.00
46044;PMS7003;31781;54.094;13.428;2023-08-31T05:41:36;2.60;2.60;2.40
46044;PMS7003;31781;54.094;13.428;2023-08-31T05:43:38;4.00;4.00;3.00
46044;PMS7003;31781;54.094;13.428;2023-08-31T05:45:44;4.00;4.00;3.00
46044;PMS7003;31781;54.094;13.428;2023-08-31T05:47:45;3.00;3.00;2.80
46044;PMS7003;31781;54.094;13.428;2023-08-31T05:49:47;3.00;3.00;2.60
46044;PMS7003;31781;54.094;13.428;2023-08-31T05:51:49;3.40;3.40;3.00
46044;PMS7003;31781;54.094;13.428;2023-08-31T05:53:51;4.20;4.20;3.80
46044;PMS7003;31781;54.094;13.428;2023-08-31T05:55:54;2.80;2.80;2.00
46044;PMS7003;31781;54.094;13.428;2023-08-31T05:57:56;4.40;4.00;3.20
46044;PMS7003;31781;54.094;13.428;2023-08-31T05:59:58;5.80;5.40;4.40
46044;PMS7003;31781;54.094;13.428;2023-08-31T06:02:02;4.40;4.40;3.20
46044;PMS7003;31781;54.094;13.428;2023-08-31T06:04:03;6.40;6.40;5.00
46044;PMS7003;31781;54.094;13.428;2023-08-31T06:06:05;4.20;4.20;3.40
46044;PMS7003;31781;54.094;13.428;2023-08-31T06:08:07;5.00;5.00;4.00
46044;PMS7003;31781;54.094;13.428;2023-08-31T06:10:09;6.80;6.80;5.20
46044;PMS7003;31781;54.094;13.428;2023-08-31T06:12:11;6.00;6.00;5.00
46044;PMS7003;31781;54.094;13.428;2023-08-31T06:14:13;6.00;6.00;5.00
46044;PMS7003;31781;54.094;13.428;2023-08-31T06:16:15;6.80;6.80;5.00
46044;PMS7003;31781;54.094;13.428;2023-08-31T06:18:18;8.20;8.20;6.00
46044;PMS7003;31781;54.094;13.428;2023-08-31T06:20:19;8.00;8.00;6.50
46044;PMS7003;31781;54.094;13.428;2023-08-31T06:22:21;7.00;7.00;5.75
46044;PMS7003;31781;54.094;13.428;2023-08-31T06:24:23;10.50;8.00;6.00
46044;PMS7003;31781;54.094;13.428;2023-08-31T06:26:25;9.25;8.75;6.75
46044;PMS7003;31781;54.094;13.428;2023-08-31T06:28:27;6.75;6.75;5.00
46044;PMS7003;31781;54.094;13.428;2023-08-31T06:30:29;10.00;10.00;6.75
46044;PMS7003;31781;54.094;13.428;2023-08-31T06:32:30;8.00;8.00;5.50
46044;PMS7003;31781;54.094;13.428;2023-08-31T06:34:34;8.60;8.60;7.20
46044;PMS7003;31781;54.094;13.428;2023-08-31T06:36:36;8.80;8.80;7.00
46044;PMS7003;31781;54.094;13.428;2023-08-31T06:38:38;10.25;8.75;6.00
46044;PMS7003;31781;54.094;13.428;2023-08-31T06:40:41;9.40;9.40;7.20
46044;PMS7003;31781;54.094;13.428;2023-08-31T06:42:43;9.00;8.60;6.60
46044;PMS7003;31781;54.094;13.428;2023-08-31T06:44:45;10.50;10.50;7.75
46044;PMS7003;31781;54.094;13.428;2023-08-31T06:46:47;11.50;10.50;8.25
46044;PMS7003;31781;54.094;13.428;2023-08-31T06:48:48;10.40;10.40;7.80
46044;PMS7003;31781;54.094;13.428;2023-08-31T06:50:52;7.20;6.00;4.00
46044;PMS7003;31781;54.094;13.428;2023-08-31T06:52:54;10.00;10.00;7.20
46044;PMS7003;31781;54.094;13.428;2023-08-31T06:54:56;11.00;10.00;8.00
46044;PMS7003;31781;54.094;13.428;2023-08-31T06:56:58;6.00;6.00;5.00
46044;PMS7003;31781;54.094;13.428;2023-08-31T06:59:00;10.60;10.20;8.00
46044;PMS7003;31781;54.094;13.428;2023-08-31T07:01:05;11.40;11.40;7.60
46044;PMS7003;31781;54.094;13.428;2023-08-31T07:03:07;14.75;13.25;11.00
46044;PMS7003;31781;54.094;13.428;2023-08-31T07:05:10;10.25;10.25;7.50
46044;PMS7003;31781;54.094;13.428;2023-08-31T07:07:13;12.50;10.75;7.00
46044;PMS7003;31781;54.094;13.428;2023-08-31T07:09:15;11.20;11.20;8.00
46044;PMS7003;31781;54.094;13.428;2023-08-31T07:11:17;14.75;13.00;10.00
46044;PMS7003;31781;54.094;13.428;2023-08-31T07:13:19;12.75;12.75;10.75
46044;PMS7003;31781;54.094;13.428;2023-08-31T07:15:21;12.60;12.20;7.80
46044;PMS7003;31781;54.094;13.428;2023-08-31T07:17:23;13.00;13.00;9.80
46044;PMS7003;31781;54.094;13.428;2023-08-31T07:19:25;12.75;12.50;9.00
46044;PMS7003;31781;54.094;13.428;2023-08-31T07:21:27;11.50;10.00;6.75
46044;PMS7003;31781;54.094;13.428;2023-08-31T07:23:30;12.75;12.75;9.25
46044;PMS7003;31781;54.094;13.428;2023-08-31T07:25:32;13.50;13.50;9.75
46044;PMS7003;31781;54.094;13.428;2023-08-31T07:27:34;12.75;12.50;8.50
46044;PMS7003;31781;54.094;13.428;2023-08-31T07:29:36;12.40;10.20;6.40
46044;PMS7003;31781;54.094;13.428;2023-08-31T07:31:38;12.80;11.60;8.60
46044;PMS7003;31781;54.094;13.428;2023-08-31T07:33:40;14.40;11.40;8.80
46044;PMS7003;31781;54.094;13.428;2023-08-31T07:35:42;12.00;10.60;8.00
46044;PMS7003;31781;54.094;13.428;2023-08-31T07:37:44;11.80;10.00;8.00
46044;PMS7003;31781;54.094;13.428;2023-08-31T07:39:47;9.50;9.50;6.50
46044;PMS7003;31781;54.094;13.428;2023-08-31T07:41:49;10.50;10.50;8.00
46044;PMS7003;31781;54.094;13.428;2023-08-31T07:43:53;11.80;11.20;7.60
46044;PMS7003;31781;54.094;13.428;2023-08-31T07:46:05;9.80;9.80;7.40
46044;PMS7003;31781;54.094;13.428;2023-08-31T07:48:07;10.75;10.75;7.50
46044;PMS7003;31781;54.094;13.428;2023-08-31T07:50:09;11.60;11.60;8.00
46044;PMS7003;31781;54.094;13.428;2023-08-31T07:52:11;12.20;11.00;9.00
46044;PMS7003;31781;54.094;13.428;2023-08-31T07:54:18;11.75;11.75;8.50
46044;PMS7003;31781;54.094;13.428;2023-08-31T07:56:22;9.80;9.80;7.80
46044;PMS7003;31781;54.094;13.428;2023-08-31T07:58:24;8.75;8.75;6.25
46044;PMS7003;31781;54.094;13.428;2023-08-31T08:00:26;12.25;10.75;7.75
46044;PMS7003;31781;54.094;13.428;2023-08-31T08:02:29;11.50;9.75;7.75
46044;PMS7003;31781;54.094;13.428;2023-08-31T08:04:30;9.80;9.80;7.40
46044;PMS7003;31781;54.094;13.428;2023-08-31T08:06:32;9.60;8.60;6.60
46044;PMS7003;31781;54.094;13.428;2023-08-31T08:08:34;8.20;8.20;6.40
46044;PMS7003;31781;54.094;13.428;2023-08-31T08:10:36;11.80;11.40;8.20
46044;PMS7003;31781;54.094;13.428;2023-08-31T08:12:39;10.00;8.40;7.00
46044;PMS7003;31781;54.094;13.428;2023-08-31T08:14:41;9.20;9.20;7.00
46044;PMS7003;31781;54.094;13.428;2023-08-31T08:16:43;11.20;11.20;7.80
46044;PMS7003;31781;54.094;13.428;2023-08-31T08:18:45;11.20;8.40;6.80
46044;PMS7003;31781;54.094;13.428;2023-08-31T08:20:47;9.20;9.20;7.00
46044;PMS7003;31781;54.094;13.428;2023-08-31T08:22:49;11.60;10.60;8.00
46044;PMS7003;31781;54.094;13.428;2023-08-31T08:24:51;11.20;10.40;7.00
46044;PMS7003;31781;54.094;13.428;2023-08-31T08:26:53;9.80;9.80;7.80
46044;PMS7003;31781;54.094;13.428;2023-08-31T08:28:56;11.40;9.80;6.60
46044;PMS7003;31781;54.094;13.428;2023-08-31T08:31:00;7.00;7.00;6.00
46044;PMS7003;31781;54.094;13.428;2023-08-31T08:33:03;6.80;5.40;3.80
46044;PMS7003;31781;54.094;13.428;2023-08-31T08:35:06;7.00;6.80;5.60
46044;PMS7003;31781;54.094;13.428;2023-08-31T08:37:08;7.40;7.20;5.80
46044;PMS7003;31781;54.094;13.428;2023-08-31T08:39:10;7.60;7.60;5.80
46044;PMS7003;31781;54.094;13.428;2023-08-31T08:41:12;9.40;8.20;6.00
46044;PMS7003;31781;54.094;13.428;2023-08-31T08:43:15;7.80;7.80;5.40
46044;PMS7003;31781;54.094;13.428;2023-08-31T08:45:28;8.00;6.20;4.40
46044;PMS7003;31781;54.094;13.428;2023-08-31T08:47:36;3.60;3.60;2.20
46044;PMS7003;31781;54.094;13.428;2023-08-31T08:49:39;7.60;6.80;4.00
46044;PMS7003;31781;54.094;13.428;2023-08-31T08:51:40;4.80;4.80;4.00
46044;PMS7003;31781;54.094;13.428;2023-08-31T08:53:43;7.20;7.20;6.80
46044;PMS7003;31781;54.094;13.428;2023-08-31T08:55:46;3.40;3.40;3.00
46044;PMS7003;31781;54.094;13.428;2023-08-31T08:57:48;2.60;2.60;2.40
46044;PMS7003;31781;54.094;13.428;2023-08-31T08:59:50;6.40;5.60;4.60
46044;PMS7003;31781;54.094;13.428;2023-08-31T09:01:53;7.40;7.40;5.20
46044;PMS7003;31781;54.094;13.428;2023-08-31T09:03:55;4.20;4.20;2.80
46044;PMS7003;31781;54.094;13.428;2023-08-31T09:05:58;3.00;3.00;2.60
46044;PMS7003;31781;54.094;13.428;2023-08-31T09:08:01;6.40;6.40;4.80
46044;PMS7003;31781;54.094;13.428;2023-08-31T09:10:04;3.80;3.80;3.40
46044;PMS7003;31781;54.094;13.428;2023-08-31T09:12:07;4.00;4.00;3.40
46044;PMS7003;31781;54.094;13.428;2023-08-31T09:14:15;5.20;3.60;2.20
46044;PMS7003;31781;54.094;13.428;2023-08-31T09:16:23;4.20;4.20;3.00
46044;PMS7003;31781;54.094;13.428;2023-08-31T09:18:29;4.20;4.20;3.60
46044;PMS7003;31781;54.094;13.428;2023-08-31T09:20:32;4.00;4.00;3.80
46044;PMS7003;31781;54.094;13.428;2023-08-31T09:22:44;4.00;4.00;3.00
46044;PMS7003;31781;54.094;13.428;2023-08-31T09:24:46;6.40;4.40;4.20
46044;PMS7003;31781;54.094;13.428;2023-08-31T09:26:48;5.80;4.80;2.80
46044;PMS7003;31781;54.094;13.428;2023-08-31T09:28:54;3.60;3.60;3.00
46044;PMS7003;31781;54.094;13.428;2023-08-31T09:31:04;3.20;3.20;2.80
46044;PMS7003;31781;54.094;13.428;2023-08-31T09:33:07;5.00;5.00;3.40
46044;PMS7003;31781;54.094;13.428;2023-08-31T09:35:16;4.60;4.60;3.60
46044;PMS7003;31781;54.094;13.428;2023-08-31T09:37:23;3.20;3.20;2.20
46044;PMS7003;31781;54.094;13.428;2023-08-31T09:39:24;3.00;3.00;2.20
46044;PMS7003;31781;54.094;13.428;2023-08-31T09:41:44;4.00;4.00;3.00
46044;PMS7003;31781;54.094;13.428;2023-08-31T09:43:56;3.20;3.00;2.80
46044;PMS7003;31781;54.094;13.428;2023-08-31T09:45:58;5.00;3.20;3.00
46044;PMS7003;31781;54.094;13.428;2023-08-31T09:48:02;3.00;3.00;3.00
46044;PMS7003;31781;54.094;13.428;2023-08-31T09:50:05;1.00;1.00;1.00
46044;PMS7003;31781;54.094;13.428;2023-08-31T09:52:08;3.25;3.00;2.25
46044;PMS7003;31781;54.094;13.428;2023-08-31T09:54:12;1.25;1.25;1.00
46044;PMS7003;31781;54.094;13.428;2023-08-31T09:56:17;2.40;2.40;1.60
46044;PMS7003;31781;54.094;13.428;2023-08-31T09:58:22;2.25;2.25;2.00
46044;PMS7003;31781;54.094;13.428;2023-08-31T10:00:25;2.25;2.25;1.00
46044;PMS7003;31781;54.094;13.428;2023-08-31T10:02:30;2.00;2.00;2.00
46044;PMS7003;31781;54.094;13.428;2023-08-31T10:04:32;1.00;1.00;1.00
46044;PMS7003;31781;54.094;13.428;2023-08-31T10:06:36;2.00;2.00;1.00
46044;PMS7003;31781;54.094;13.428;2023-08-31T10:08:42;2.00;2.00;1.50
46044;PMS7003;31781;54.094;13.428;2023-08-31T10:10:43;2.00;2.00;1.75
46044;PMS7003;31781;54.094;13.428;2023-08-31T10:12:46;1.00;1.00;1.00
46044;PMS7003;31781;54.094;13.428;2023-08-31T10:14:50;2.75;2.75;2.00
46044;PMS7003;31781;54.094;13.428;2023-08-31T10:16:52;1.25;1.25;1.25
46044;PMS7003;31781;54.094;13.428;2023-08-31T10:18:57;1.25;1.25;1.25
46044;PMS7003;31781;54.094;13.428;2023-08-31T10:20:59;2.00;2.00;2.00
46044;PMS7003;31781;54.094;13.428;2023-08-31T10:23:03;1.75;1.75;1.50
46044;PMS7003;31781;54.094;13.428;2023-08-31T10:25:07;1.25;1.25;1.00
46044;PMS7003;31781;54.094;13.428;2023-08-31T10:27:19;1.75;1.75;1.00
46044;PMS7003;31781;54.094;13.428;2023-08-31T10:29:27;3.00;3.00;2.00
46044;PMS7003;31781;54.094;13.428;2023-08-31T10:31:29;1.00;1.00;1.00
46044;PMS7003;31781;54.094;13.428;2023-08-31T10:33:33;1.00;1.00;1.00
46044;PMS7003;31781;54.094;13.428;2023-08-31T10:35:40;1.00;1.00;1.00
46044;PMS7003;31781;54.094;13.428;2023-08-31T10:37:42;2.00;1.00;0.50
46044;PMS7003;31781;54.094;13.428;2023-08-31T10:39:44;1.00;1.00;1.00
46044;PMS7003;31781;54.094;13.428;2023-08-31T10:41:53;0.00;0.00;0.00
46044;PMS7003;31781;54.094;13.428;2023-08-31T10:43:56;1.75;1.75;1.25
46044;PMS7003;31781;54.094;13.428;2023-08-31T10:46:00;1.00;1.00;1.00
46044;PMS7003;31781;54.094;13.428;2023-08-31T10:48:02;3.25;2.00;2.00
46044;PMS7003;31781;54.094;13.428;2023-08-31T10:50:15;2.00;2.00;1.75
46044;PMS7003;31781;54.094;13.428;2023-08-31T10:52:17;2.00;2.00;1.00
46044;PMS7003;31781;54.094;13.428;2023-08-31T10:54:40;1.75;1.75;1.00
46044;PMS7003;31781;54.094;13.428;2023-08-31T10:57:01;1.00;1.00;1.00
46044;PMS7003;31781;54.094;13.428;2023-08-31T10:59:04;1.25;1.25;0.75
46044;PMS7003;31781;54.094;13.428;2023-08-31T11:01:06;0.50;0.50;0.50
46044;PMS7003;31781;54.094;13.428;2023-08-31T11:03:08;1.00;1.00;1.00
46044;PMS7003;31781;54.094;13.428;2023-08-31T11:05:14;1.00;1.00;0.75
46044;PMS7003;31781;54.094;13.428;2023-08-31T11:07:18;0.25;0.25;0.25
46044;PMS7003;31781;54.094;13.428;2023-08-31T11:09:21;0.00;0.00;0.00
46044;PMS7003;31781;54.094;13.428;2023-08-31T11:11:23;0.50;0.25;0.00
46044;PMS7003;31781;54.094;13.428;2023-08-31T11:13:26;1.00;1.00;1.00
46044;PMS7003;31781;54.094;13.428;2023-08-31T11:15:28;1.75;1.75;1.00
46044;PMS7003;31781;54.094;13.428;2023-08-31T11:17:30;3.25;0.25;0.00
46044;PMS7003;31781;54.094;13.428;2023-08-31T11:19:32;1.00;1.00;1.00
46044;PMS7003;31781;54.094;13.428;2023-08-31T11:21:36;0.00;0.00;0.00
46044;PMS7003;31781;54.094;13.428;2023-08-31T11:23:38;0.75;0.75;0.75
46044;PMS7003;31781;54.094;13.428;2023-08-31T11:25:39;0.00;0.00;0.00
46044;PMS7003;31781;54.094;13.428;2023-08-31T11:27:41;1.25;1.00;0.25
46044;PMS7003;31781;54.094;13.428;2023-08-31T11:29:45;1.00;1.00;1.00
46044;PMS7003;31781;54.094;13.428;2023-08-31T11:31:47;0.00;0.00;0.00
46044;PMS7003;31781;54.094;13.428;2023-08-31T11:33:49;1.00;1.00;1.00
46044;PMS7003;31781;54.094;13.428;2023-08-31T11:35:50;0.00;0.00;0.00
46044;PMS7003;31781;54.094;13.428;2023-08-31T11:37:55;0.25;0.25;0.25
46044;PMS7003;31781;54.094;13.428;2023-08-31T11:39:58;0.00;0.00;0.00
46044;PMS7003;31781;54.094;13.428;2023-08-31T11:42:00;0.00;0.00;0.00
46044;PMS7003;31781;54.094;13.428;2023-08-31T11:44:03;0.00;0.00;0.00
46044;PMS7003;31781;54.094;13.428;2023-08-31T11:46:08;0.50;0.50;0.50
46044;PMS7003;31781;54.094;13.428;2023-08-31T11:48:10;0.00;0.00;0.00